createdAt,value
2018-08-11T00:00:44.452Z,61.88
2018-08-11T00:01:45.216Z,61.85
2018-08-11T00:02:46.017Z,62.20
2018-08-11T00:03:46.788Z,62.47
2018-08-11T00:04:47.568Z,62.66
2018-08-11T00:05:48.332Z,62.52
2018-08-11T00:06:49.104Z,62.72
2018-08-11T00:07:49.909Z,62.75
2018-08-11T00:08:50.677Z,62.89
2018-08-11T00:09:51.461Z,63.59
2018-08-11T00:10:52.235Z,63.68
2018-08-11T00:11:53.009Z,63.54
2018-08-11T00:12:53.809Z,63.60
2018-08-11T00:13:54.578Z,63.55
2018-08-11T00:14:55.355Z,63.58
2018-08-11T00:15:56.124Z,63.52
2018-08-11T00:16:56.910Z,63.85
2018-08-11T00:17:57.705Z,63.98
2018-08-11T00:18:58.476Z,63.67
2018-08-11T00:19:59.246Z,63.99
2018-08-11T00:21:00.128Z,63.71
2018-08-11T00:21:59.824Z,63.68
2018-08-11T00:23:01.622Z,63.58
2018-08-11T00:24:02.400Z,63.71
2018-08-11T00:25:03.171Z,64.03
2018-08-11T00:26:03.940Z,63.98
2018-08-11T00:27:04.712Z,64.09
2018-08-11T00:28:05.514Z,64.11
2018-08-11T00:29:06.289Z,64.26
2018-08-11T00:30:07.154Z,64.48
2018-08-11T00:31:06.848Z,64.42
2018-08-11T00:32:08.623Z,65.31
2018-08-11T00:33:09.416Z,65.00
2018-08-11T00:34:10.189Z,64.40
2018-08-11T00:35:10.963Z,64.05
2018-08-11T00:36:11.734Z,63.51
2018-08-11T00:37:12.504Z,63.59
2018-08-11T00:38:13.306Z,64.65
2018-08-11T00:39:14.077Z,64.19
2018-08-11T00:40:14.852Z,63.95
2018-08-11T00:41:15.624Z,63.83
2018-08-11T00:42:16.395Z,63.77
2018-08-11T00:43:17.206Z,63.86
2018-08-11T00:44:17.965Z,63.81
2018-08-11T00:45:18.738Z,63.61
2018-08-11T00:46:19.509Z,63.42
2018-08-11T00:47:20.286Z,63.46
2018-08-11T00:48:21.081Z,63.63
2018-08-11T00:49:21.873Z,63.46
2018-08-11T00:50:21.628Z,64.49
2018-08-11T00:51:23.410Z,63.56
2018-08-11T00:52:24.182Z,63.41
2018-08-11T00:53:24.970Z,63.15
2018-08-11T00:54:25.739Z,62.92
2018-08-11T00:55:26.515Z,63.49
2018-08-11T00:56:27.290Z,64.12
2018-08-11T00:57:28.057Z,63.77
2018-08-11T00:58:28.854Z,63.95
2018-08-11T00:59:29.628Z,63.10
2018-08-11T01:00:30.402Z,62.99
2018-08-11T01:01:31.181Z,63.12
2018-08-11T01:02:31.955Z,63.50
2018-08-11T01:03:32.755Z,63.43
2018-08-11T01:04:33.527Z,63.90
2018-08-11T01:05:35.296Z,63.66
2018-08-11T01:06:35.073Z,63.61
2018-08-11T01:07:35.841Z,63.93
2018-08-11T01:08:36.647Z,63.72
2018-08-11T01:09:37.411Z,63.14
2018-08-11T01:10:38.188Z,62.62
2018-08-11T01:11:38.963Z,62.50
2018-08-11T01:12:39.788Z,62.48
2018-08-11T01:13:39.529Z,62.87
2018-08-11T01:14:41.304Z,62.39
2018-08-11T01:15:42.078Z,62.72
2018-08-11T01:16:42.850Z,62.72
2018-08-11T01:17:43.625Z,62.53
2018-08-11T01:18:44.421Z,62.50
2018-08-11T01:19:45.200Z,63.06
2018-08-11T01:20:45.965Z,62.86
2018-08-11T01:21:46.748Z,62.58
2018-08-11T01:22:46.516Z,62.68
2018-08-11T01:23:48.330Z,63.14
2018-08-11T01:24:49.474Z,62.47
2018-08-11T01:32:46.612Z,63.20
2018-08-11T01:33:47.382Z,63.28
2018-08-11T01:34:48.179Z,62.92
2018-08-11T01:35:48.953Z,62.74
2018-08-11T01:36:49.726Z,62.54
2018-08-11T01:37:51.495Z,62.49
2018-08-11T01:38:51.269Z,63.28
2018-08-11T01:39:52.058Z,62.88
2018-08-11T01:40:52.832Z,62.11
2018-08-11T01:41:53.602Z,61.86
2018-08-11T01:42:54.374Z,61.89
2018-08-11T01:43:56.145Z,61.38
2018-08-11T01:44:55.949Z,61.67
2018-08-11T01:45:56.717Z,62.38
2018-08-11T01:46:57.488Z,62.40
2018-08-11T01:47:58.261Z,61.70
2018-08-11T01:48:59.032Z,61.54
2018-08-11T01:49:59.830Z,61.68
2018-08-11T01:51:00.603Z,62.27
2018-08-11T01:52:01.376Z,62.11
2018-08-11T01:53:02.150Z,61.04
2018-08-11T01:54:02.921Z,61.03
2018-08-11T01:55:04.716Z,60.85
2018-08-11T01:56:04.576Z,60.74
2018-08-11T01:57:04.283Z,61.66
2018-08-11T01:58:06.057Z,60.62
2018-08-11T01:59:06.830Z,60.71
2018-08-11T02:00:07.628Z,61.34
2018-08-11T02:01:08.399Z,61.35
2018-08-11T02:02:09.173Z,61.77
2018-08-11T02:03:09.945Z,60.81
2018-08-11T02:04:10.716Z,60.47
2018-08-11T02:05:11.510Z,60.64
2018-08-11T02:06:12.281Z,61.05
2018-08-11T02:07:13.054Z,59.77
2018-08-11T02:08:13.872Z,59.71
2018-08-11T02:09:13.598Z,59.78
2018-08-11T02:10:15.398Z,59.76
2018-08-11T02:11:16.202Z,59.55
2018-08-11T02:12:15.939Z,59.76
2018-08-11T02:13:17.713Z,59.95
2018-08-11T02:14:18.488Z,60.13
2018-08-11T02:15:18.286Z,60.46
2018-08-11T02:16:20.057Z,60.07
2018-08-11T02:17:20.831Z,60.34
2018-08-11T02:18:21.603Z,60.18
2018-08-11T02:19:22.380Z,61.09
2018-08-11T02:20:23.180Z,60.60
2018-08-11T02:21:23.951Z,61.06
2018-08-11T02:22:24.752Z,60.97
2018-08-11T02:23:25.507Z,60.16
2018-08-11T02:24:26.279Z,60.65
2018-08-11T02:25:27.078Z,60.59
2018-08-11T02:26:27.851Z,60.61
2018-08-11T02:27:29.620Z,60.28
2018-08-11T02:28:29.399Z,60.42
2018-08-11T02:29:30.169Z,60.37
2018-08-11T02:30:30.968Z,60.19
2018-08-11T02:31:31.738Z,60.16
2018-08-11T02:32:32.514Z,59.44
2018-08-11T02:33:33.294Z,59.62
2018-08-11T02:34:34.058Z,59.94
2018-08-11T02:35:34.952Z,59.61
2018-08-11T02:36:34.648Z,59.71
2018-08-11T02:37:36.427Z,59.72
2018-08-11T02:38:37.191Z,59.59
2018-08-11T02:39:37.971Z,59.39
2018-08-11T02:40:38.770Z,59.18
2018-08-11T02:41:39.544Z,59.55
2018-08-11T02:42:40.313Z,59.61
2018-08-11T02:43:41.085Z,59.52
2018-08-11T02:44:41.870Z,59.42
2018-08-11T02:45:42.660Z,59.30
2018-08-11T02:46:43.430Z,58.80
2018-08-11T02:47:44.207Z,59.21
2018-08-11T02:48:44.981Z,59.62
2018-08-11T02:49:45.758Z,59.88
2018-08-11T02:50:46.551Z,60.04
2018-08-11T02:51:47.332Z,59.71
2018-08-11T02:52:48.114Z,59.90
2018-08-11T02:53:48.884Z,59.76
2018-08-11T02:54:49.659Z,59.64
2018-08-11T02:55:50.460Z,59.78
2018-08-11T02:56:51.233Z,59.96
2018-08-11T02:57:52.008Z,59.80
2018-08-11T02:58:52.778Z,59.97
2018-08-11T02:59:53.553Z,59.81
2018-08-11T03:00:54.361Z,60.12
2018-08-11T03:01:55.128Z,60.14
2018-08-11T03:02:55.906Z,59.95
2018-08-11T03:03:56.676Z,60.08
2018-08-11T03:04:57.456Z,60.24
2018-08-11T03:05:58.252Z,60.24
2018-08-11T03:06:59.032Z,60.13
2018-08-11T03:07:59.800Z,60.06
2018-08-11T03:09:00.575Z,60.18
2018-08-11T03:10:01.350Z,60.48
2018-08-11T03:11:02.148Z,60.56
2018-08-11T03:12:02.914Z,60.43
2018-08-11T03:13:03.685Z,60.33
2018-08-11T03:14:04.571Z,60.72
2018-08-11T03:15:04.235Z,60.71
2018-08-11T03:16:06.032Z,60.76
2018-08-11T03:17:06.807Z,60.77
2018-08-11T03:18:07.595Z,60.91
2018-08-11T03:19:08.356Z,60.88
2018-08-11T03:20:09.131Z,60.59
2018-08-11T03:21:09.928Z,60.68
2018-08-11T03:22:09.702Z,60.72
2018-08-11T03:23:11.476Z,60.37
2018-08-11T03:24:12.253Z,60.44
2018-08-11T03:25:13.028Z,60.63
2018-08-11T03:26:15.537Z,60.77
2018-08-11T03:33:04.766Z,60.98
2018-08-11T03:34:06.533Z,60.94
2018-08-11T03:35:06.308Z,60.91
2018-08-11T03:36:07.075Z,60.85
2018-08-11T03:37:07.870Z,61.18
2018-08-11T03:38:08.640Z,60.77
2018-08-11T03:39:09.411Z,61.17
2018-08-11T03:40:10.187Z,60.88
2018-08-11T03:41:11.042Z,60.72
2018-08-11T03:42:10.764Z,60.38
2018-08-11T03:43:12.532Z,60.63
2018-08-11T03:44:13.305Z,60.94
2018-08-11T03:45:14.083Z,60.82
2018-08-11T03:46:14.848Z,61.19
2018-08-11T03:47:15.646Z,60.90
2018-08-11T03:48:16.416Z,60.88
2018-08-11T03:49:17.188Z,60.64
2018-08-11T03:50:17.964Z,60.63
2018-08-11T03:51:18.739Z,60.27
2018-08-11T03:52:19.534Z,60.47
2018-08-11T03:53:20.303Z,60.49
2018-08-11T03:54:21.077Z,60.07
2018-08-11T03:55:21.847Z,60.49
2018-08-11T03:56:22.619Z,60.83
2018-08-11T03:57:23.417Z,60.82
2018-08-11T03:58:24.190Z,60.92
2018-08-11T03:59:24.969Z,60.71
2018-08-11T04:00:25.739Z,60.66
2018-08-11T04:01:27.510Z,60.71
2018-08-11T04:02:27.319Z,60.35
2018-08-11T04:03:28.074Z,60.69
2018-08-11T04:04:28.850Z,60.40
2018-08-11T04:05:29.623Z,60.38
2018-08-11T04:06:30.438Z,60.45
2018-08-11T04:07:30.190Z,60.42
2018-08-11T04:08:31.962Z,60.48
2018-08-11T04:09:32.732Z,60.56
2018-08-11T04:10:33.506Z,60.40
2018-08-11T04:11:34.277Z,60.71
2018-08-11T04:12:35.075Z,60.39
2018-08-11T04:13:35.846Z,60.69
2018-08-11T04:14:36.618Z,60.66
2018-08-11T04:15:37.390Z,60.30
2018-08-11T04:16:38.161Z,60.50
2018-08-11T04:17:38.962Z,60.49
2018-08-11T04:18:39.733Z,60.54
2018-08-11T04:19:40.591Z,59.82
2018-08-11T04:20:40.295Z,60.06
2018-08-11T04:21:42.068Z,60.39
2018-08-11T04:22:42.870Z,60.22
2018-08-11T04:23:43.639Z,60.17
2018-08-11T04:24:44.417Z,60.45
2018-08-11T04:25:45.188Z,60.13
2018-08-11T04:26:45.960Z,60.31
2018-08-11T04:27:46.758Z,60.63
2018-08-11T04:28:47.538Z,60.58
2018-08-11T04:29:48.304Z,60.35
2018-08-11T04:30:49.074Z,60.34
2018-08-11T04:31:49.846Z,60.33
2018-08-11T04:32:50.645Z,60.16
2018-08-11T04:33:51.419Z,60.34
2018-08-11T04:34:52.192Z,60.14
2018-08-11T04:35:52.969Z,60.20
2018-08-11T04:36:53.742Z,60.08
2018-08-11T04:37:54.542Z,60.01
2018-08-11T04:38:55.318Z,60.04
2018-08-11T04:39:56.093Z,60.09
2018-08-11T04:40:56.867Z,60.00
2018-08-11T04:41:57.712Z,60.35
2018-08-11T04:42:57.444Z,60.35
2018-08-11T04:43:59.217Z,60.54
2018-08-11T04:44:59.994Z,60.68
2018-08-11T04:46:00.770Z,60.28
2018-08-11T04:47:01.542Z,60.33
2018-08-11T04:48:02.342Z,60.53
2018-08-11T04:49:03.121Z,60.19
2018-08-11T04:50:03.893Z,60.60
2018-08-11T04:51:04.671Z,60.27
2018-08-11T04:52:05.442Z,60.41
2018-08-11T04:53:05.242Z,60.16
2018-08-11T04:54:07.022Z,60.01
2018-08-11T04:55:07.792Z,60.24
2018-08-11T04:56:08.572Z,60.10
2018-08-11T04:57:09.346Z,60.02
2018-08-11T04:58:10.205Z,60.04
2018-08-11T04:59:09.922Z,60.19
2018-08-11T05:00:11.694Z,60.17
2018-08-11T05:01:12.466Z,60.06
2018-08-11T05:02:13.244Z,59.94
2018-08-11T05:03:14.046Z,59.71
2018-08-11T05:04:14.819Z,59.85
2018-08-11T05:05:15.595Z,59.57
2018-08-11T05:06:16.373Z,59.89
2018-08-11T05:07:17.144Z,59.67
2018-08-11T05:08:17.943Z,60.00
2018-08-11T05:09:18.728Z,59.92
2018-08-11T05:10:19.489Z,59.74
2018-08-11T05:11:20.267Z,59.72
2018-08-11T05:12:21.037Z,59.33
2018-08-11T05:13:21.840Z,59.63
2018-08-11T05:14:22.613Z,59.51
2018-08-11T05:15:23.473Z,59.40
2018-08-11T05:16:23.171Z,59.57
2018-08-11T05:17:24.940Z,59.40
2018-08-11T05:18:25.738Z,59.32
2018-08-11T05:19:26.513Z,59.16
2018-08-11T05:20:27.289Z,59.02
2018-08-11T05:21:28.061Z,59.25
2018-08-11T05:22:28.833Z,59.32
2018-08-11T05:23:29.636Z,59.13
2018-08-11T05:24:30.497Z,59.19
2018-08-11T05:25:30.193Z,59.13
2018-08-11T05:26:32.070Z,59.37
2018-08-11T05:27:33.293Z,59.33
2018-08-11T05:28:33.495Z,59.17
2018-08-11T05:29:32.684Z,59.33
2018-08-11T05:30:32.863Z,59.41
2018-08-11T05:30:41.277Z,59.33
2018-08-11T05:31:42.047Z,59.32
2018-08-11T05:32:42.823Z,59.17
2018-08-11T05:33:43.618Z,58.85
2018-08-11T05:34:44.393Z,57.88
2018-08-11T05:35:45.170Z,56.85
2018-08-11T05:36:45.939Z,56.23
2018-08-11T05:37:46.717Z,54.49
2018-08-11T05:38:47.519Z,53.49
2018-08-11T05:39:48.297Z,52.56
2018-08-11T05:40:49.065Z,51.28
2018-08-11T05:41:50.836Z,50.42
2018-08-11T05:42:50.611Z,49.14
2018-08-11T05:43:51.408Z,49.03
2018-08-11T05:44:52.180Z,47.69
2018-08-11T05:45:52.957Z,44.57
2018-08-11T05:46:53.725Z,44.07
2018-08-11T05:47:54.497Z,43.29
2018-08-11T05:48:55.295Z,41.60
2018-08-11T05:49:56.069Z,41.26
2018-08-11T05:50:56.841Z,40.32
2018-08-11T05:51:57.618Z,40.75
2018-08-11T05:52:58.389Z,40.74
2018-08-11T05:53:59.187Z,41.01
2018-08-11T05:54:59.957Z,41.65
2018-08-11T05:56:00.730Z,41.39
2018-08-11T05:57:01.504Z,42.14
2018-08-11T05:58:02.285Z,42.86
2018-08-11T05:59:03.071Z,43.22
2018-08-11T06:00:03.847Z,42.55
2018-08-11T06:01:04.618Z,41.91
2018-08-11T06:02:05.391Z,41.80
2018-08-11T06:03:06.169Z,41.45
2018-08-11T06:04:07.082Z,39.90
2018-08-11T06:05:06.740Z,39.49
2018-08-11T06:06:08.514Z,39.00
2018-08-11T06:07:09.290Z,37.81
2018-08-11T06:08:10.061Z,36.39
2018-08-11T06:09:10.867Z,35.27
2018-08-11T06:10:11.631Z,35.61
2018-08-11T06:11:12.404Z,35.79
2018-08-11T06:12:13.178Z,35.86
2018-08-11T06:13:13.948Z,35.38
2018-08-11T06:14:14.745Z,35.80
2018-08-11T06:15:15.517Z,35.30
2018-08-11T06:16:16.296Z,35.07
2018-08-11T06:17:17.067Z,36.09
2018-08-11T06:18:17.846Z,36.06
2018-08-11T06:19:18.643Z,36.35
2018-08-11T06:20:19.417Z,35.51
2018-08-11T06:21:20.187Z,35.27
2018-08-11T06:22:20.961Z,35.53
2018-08-11T06:23:21.739Z,36.24
2018-08-11T06:24:22.627Z,36.78
2018-08-11T06:25:22.326Z,35.92
2018-08-11T06:26:24.099Z,35.95
2018-08-11T06:27:24.870Z,35.74
2018-08-11T06:28:25.644Z,35.91
2018-08-11T06:29:26.450Z,37.00
2018-08-11T06:30:27.228Z,37.25
2018-08-11T06:31:28.103Z,37.49
2018-08-11T06:32:27.776Z,37.95
2018-08-11T06:33:29.550Z,39.08
2018-08-11T06:34:30.347Z,39.02
2018-08-11T06:35:31.124Z,38.51
2018-08-11T06:36:31.898Z,38.39
2018-08-11T06:37:32.671Z,37.18
2018-08-11T06:38:33.447Z,37.25
2018-08-11T06:39:34.246Z,38.01
2018-08-11T06:40:35.106Z,38.59
2018-08-11T06:41:34.800Z,38.21
2018-08-11T06:42:36.575Z,37.97
2018-08-11T06:43:37.348Z,38.09
2018-08-11T06:44:38.147Z,37.09
2018-08-11T06:45:38.923Z,36.55
2018-08-11T06:46:39.802Z,35.93
2018-08-11T06:47:39.470Z,34.90
2018-08-11T06:48:40.246Z,34.59
2018-08-11T06:49:42.049Z,34.77
2018-08-11T06:50:42.823Z,34.52
2018-08-11T06:51:43.604Z,35.49
2018-08-11T06:52:44.378Z,34.70
2018-08-11T06:53:45.240Z,34.73
2018-08-11T06:54:44.958Z,35.12
2018-08-11T06:55:46.733Z,33.97
2018-08-11T06:56:47.505Z,34.99
2018-08-11T06:57:48.279Z,35.10
2018-08-11T06:58:49.050Z,34.59
2018-08-11T06:59:49.851Z,33.93
2018-08-11T07:00:50.624Z,32.98
2018-08-11T07:01:51.396Z,34.71
2018-08-11T07:02:52.170Z,34.76
2018-08-11T07:03:52.971Z,33.97
2018-08-11T07:04:53.747Z,33.89
2018-08-11T07:05:54.514Z,33.74
2018-08-11T07:06:55.364Z,33.38
2018-08-11T07:07:55.060Z,34.30
2018-08-11T07:08:56.830Z,33.06
2018-08-11T07:09:57.628Z,33.78
2018-08-11T07:10:58.403Z,33.81
2018-08-11T07:11:59.188Z,32.98
2018-08-11T07:12:59.949Z,32.69
2018-08-11T07:14:00.730Z,33.00
2018-08-11T07:15:01.525Z,33.66
2018-08-11T07:16:02.296Z,33.62
2018-08-11T07:17:03.070Z,33.16
2018-08-11T07:18:03.847Z,32.72
2018-08-11T07:19:04.621Z,32.17
2018-08-11T07:20:05.428Z,31.71
2018-08-11T07:21:06.205Z,31.37
2018-08-11T07:22:06.974Z,31.08
2018-08-11T07:23:07.753Z,30.62
2018-08-11T07:24:08.625Z,31.64
2018-08-11T07:24:53.859Z,32.83
2018-08-11T07:25:53.587Z,32.78
2018-08-11T07:26:55.353Z,33.46
2018-08-11T07:27:56.125Z,32.71
2018-08-11T07:28:56.895Z,33.29
2018-08-11T07:29:57.669Z,33.29
2018-08-11T07:30:58.469Z,32.45
2018-08-11T07:31:59.237Z,32.76
2018-08-11T07:33:00.010Z,32.67
2018-08-11T07:34:00.787Z,32.76
2018-08-11T07:35:01.562Z,32.62
2018-08-11T07:36:02.428Z,32.62
2018-08-11T07:37:02.141Z,33.11
2018-08-11T07:38:03.909Z,35.02
2018-08-11T07:39:03.694Z,34.37
2018-08-11T07:40:04.480Z,33.81
2018-08-11T07:41:05.277Z,34.23
2018-08-11T07:42:07.050Z,34.33
2018-08-11T07:43:07.822Z,34.80
2018-08-11T07:44:08.594Z,35.90
2018-08-11T07:45:09.367Z,35.97
2018-08-11T07:46:10.168Z,36.72
2018-08-11T07:47:10.940Z,36.89
2018-08-11T07:48:11.720Z,37.75
2018-08-11T07:49:12.488Z,37.30
2018-08-11T07:50:13.298Z,37.24
2018-08-11T07:51:14.075Z,38.17
2018-08-11T07:52:14.842Z,38.27
2018-08-11T07:53:15.615Z,39.69
2018-08-11T07:54:16.391Z,39.87
2018-08-11T07:55:17.164Z,39.29
2018-08-11T07:56:17.972Z,38.53
2018-08-11T07:57:18.742Z,39.64
2018-08-11T07:58:19.517Z,39.81
2018-08-11T07:59:21.284Z,39.92
2018-08-11T08:00:21.059Z,39.07
2018-08-11T08:01:21.913Z,39.39
2018-08-11T08:02:21.628Z,39.02
2018-08-11T08:03:23.402Z,38.91
2018-08-11T08:04:23.181Z,38.15
2018-08-11T08:05:24.951Z,37.80
2018-08-11T08:06:25.745Z,37.52
2018-08-11T08:07:25.522Z,38.35
2018-08-11T08:08:27.291Z,38.47
2018-08-11T08:09:28.065Z,39.87
2018-08-11T08:10:28.837Z,39.80
2018-08-11T08:11:29.636Z,39.36
2018-08-11T08:12:30.405Z,39.96
2018-08-11T08:13:31.186Z,40.69
2018-08-11T08:14:31.949Z,40.88
2018-08-11T08:15:32.723Z,40.88
2018-08-11T08:16:33.530Z,41.56
2018-08-11T08:17:34.314Z,41.68
2018-08-11T08:18:35.077Z,41.46
2018-08-11T08:19:35.849Z,41.23
2018-08-11T08:20:36.621Z,41.66
2018-08-11T08:21:37.421Z,42.10
2018-08-11T08:22:38.193Z,42.36
2018-08-11T08:23:38.972Z,42.57
2018-08-11T08:24:39.740Z,43.35
2018-08-11T08:25:40.515Z,42.95
2018-08-11T08:26:41.340Z,42.29
2018-08-11T08:27:42.094Z,42.51
2018-08-11T08:28:42.866Z,42.73
2018-08-11T08:29:43.643Z,43.43
2018-08-11T08:30:44.416Z,43.42
2018-08-11T08:31:45.218Z,43.20
2018-08-11T08:32:46.080Z,43.12
2018-08-11T08:33:45.820Z,43.51
2018-08-11T08:34:46.548Z,42.97
2018-08-11T08:35:48.321Z,42.63
2018-08-11T08:36:49.123Z,43.08
2018-08-11T08:37:49.891Z,43.00
2018-08-11T08:38:50.674Z,42.21
2018-08-11T08:39:51.449Z,42.44
2018-08-11T08:40:52.220Z,42.16
2018-08-11T08:41:53.087Z,41.44
2018-08-11T08:42:52.800Z,41.46
2018-08-11T08:43:54.575Z,40.89
2018-08-11T08:44:55.345Z,40.74
2018-08-11T08:45:56.117Z,40.17
2018-08-11T08:46:56.916Z,41.12
2018-08-11T08:47:57.695Z,41.08
2018-08-11T08:48:58.468Z,40.22
2018-08-11T08:49:59.245Z,40.24
2018-08-11T08:51:00.024Z,39.76
2018-08-11T08:52:00.825Z,40.59
2018-08-11T08:53:01.592Z,40.28
2018-08-11T08:54:02.370Z,40.06
2018-08-11T08:55:03.141Z,40.55
2018-08-11T08:56:03.956Z,41.23
2018-08-11T08:57:04.727Z,41.72
2018-08-11T08:58:05.517Z,41.71
2018-08-11T08:59:06.350Z,42.19
2018-08-11T09:00:06.051Z,42.19
2018-08-11T09:01:07.827Z,42.83
2018-08-11T09:02:08.623Z,42.90
2018-08-11T09:03:09.403Z,43.52
2018-08-11T09:04:10.179Z,43.12
2018-08-11T09:05:10.950Z,42.92
2018-08-11T09:06:11.728Z,42.07
2018-08-11T09:07:12.528Z,42.00
2018-08-11T09:08:13.301Z,42.30
2018-08-11T09:09:14.078Z,41.88
2018-08-11T09:10:14.851Z,41.82
2018-08-11T09:11:15.632Z,41.40
2018-08-11T09:12:16.432Z,41.31
2018-08-11T09:13:17.197Z,40.42
2018-08-11T09:14:17.970Z,39.17
2018-08-11T09:15:18.746Z,38.78
2018-08-11T09:16:19.530Z,39.21
2018-08-11T09:17:19.328Z,38.90
2018-08-11T09:18:21.112Z,38.80
2018-08-11T09:19:21.921Z,38.85
2018-08-11T09:20:21.656Z,39.00
2018-08-11T09:21:23.425Z,39.12
2018-08-11T09:22:24.225Z,38.84
2018-08-11T09:23:25.363Z,38.81
2018-08-11T09:24:25.567Z,38.49
2018-08-11T09:25:26.119Z,38.29
2018-08-11T09:26:31.754Z,36.05
2018-08-11T09:27:33.549Z,36.08
2018-08-11T09:28:34.326Z,37.33
2018-08-11T09:29:35.097Z,36.62
2018-08-11T09:30:35.878Z,36.82
2018-08-11T09:31:36.651Z,36.49
2018-08-11T09:32:37.882Z,37.39
2018-08-11T09:33:37.650Z,37.57
2018-08-11T09:34:38.423Z,37.76
2018-08-11T09:35:39.193Z,37.70
2018-08-11T09:36:39.964Z,38.09
2018-08-11T09:37:40.761Z,38.02
2018-08-11T09:38:41.540Z,38.17
2018-08-11T09:39:42.308Z,38.14
2018-08-11T09:40:43.078Z,37.58
2018-08-11T09:41:43.849Z,37.14
2018-08-11T09:42:44.659Z,37.00
2018-08-11T09:43:45.430Z,37.05
2018-08-11T09:44:46.200Z,36.45
2018-08-11T09:45:47.055Z,36.12
2018-08-11T09:46:46.747Z,36.75
2018-08-11T09:47:48.542Z,36.61
2018-08-11T09:48:50.368Z,36.39
2018-08-11T09:49:49.088Z,36.49
2018-08-11T09:50:50.863Z,36.96
2018-08-11T09:51:51.635Z,36.16
2018-08-11T09:52:52.445Z,36.88
2018-08-11T09:53:53.218Z,36.67
2018-08-11T09:54:53.987Z,36.86
2018-08-11T09:55:54.758Z,36.53
2018-08-11T09:56:55.542Z,37.12
2018-08-11T09:57:56.341Z,36.53
2018-08-11T09:58:57.111Z,36.09
2018-08-11T09:59:57.888Z,36.72
2018-08-11T10:00:58.660Z,37.54
2018-08-11T10:02:00.429Z,37.70
2018-08-11T10:03:00.229Z,37.73
2018-08-11T10:04:01.004Z,38.89
2018-08-11T10:05:01.802Z,38.05
2018-08-11T10:06:02.542Z,37.89
2018-08-11T10:07:03.314Z,37.61
2018-08-11T10:08:04.115Z,37.74
2018-08-11T10:09:04.886Z,38.28
2018-08-11T10:10:05.681Z,38.25
2018-08-11T10:11:06.451Z,38.24
2018-08-11T10:12:07.222Z,38.08
2018-08-11T10:13:08.019Z,37.97
2018-08-11T10:14:08.795Z,37.98
2018-08-11T10:15:09.566Z,37.61
2018-08-11T10:16:10.343Z,37.28
2018-08-11T10:17:11.115Z,37.06
2018-08-11T10:18:11.944Z,37.01
2018-08-11T10:19:12.716Z,36.11
2018-08-11T10:20:13.488Z,36.37
2018-08-11T10:21:14.268Z,36.36
2018-08-11T10:22:15.041Z,36.92
2018-08-11T10:23:15.851Z,36.85
2018-08-11T10:24:16.622Z,37.00
2018-08-11T10:25:17.401Z,36.75
2018-08-11T10:26:18.171Z,37.79
2018-08-11T10:27:18.946Z,37.60
2018-08-11T10:28:19.745Z,37.63
2018-08-11T10:29:20.527Z,38.30
2018-08-11T10:30:21.300Z,38.16
2018-08-11T10:31:22.070Z,37.98
2018-08-11T10:32:22.846Z,37.78
2018-08-11T10:33:23.651Z,38.16
2018-08-11T10:34:23.422Z,37.69
2018-08-11T10:35:25.195Z,37.84
2018-08-11T10:36:25.971Z,37.72
2018-08-11T10:37:26.742Z,37.36
2018-08-11T10:38:27.544Z,37.37
2018-08-11T10:39:28.313Z,37.46
2018-08-11T10:40:29.093Z,37.08
2018-08-11T10:41:29.868Z,36.97
2018-08-11T10:42:30.643Z,36.91
2018-08-11T10:43:31.442Z,35.48
2018-08-11T10:44:32.214Z,35.64
2018-08-11T10:45:32.997Z,35.30
2018-08-11T10:46:33.761Z,34.71
2018-08-11T10:47:34.533Z,33.59
2018-08-11T10:48:35.336Z,33.64
2018-08-11T10:49:36.104Z,33.26
2018-08-11T10:50:37.124Z,33.50
2018-08-11T10:51:37.073Z,33.18
2018-08-11T10:52:37.928Z,33.33
2018-08-11T10:53:40.029Z,33.57
2018-08-11T10:54:38.725Z,33.78
2018-08-11T10:55:40.507Z,34.40
2018-08-11T10:56:41.276Z,33.70
2018-08-11T10:57:42.054Z,33.70
2018-08-11T10:58:42.885Z,33.65
2018-08-11T10:59:43.631Z,33.92
2018-08-11T11:00:44.398Z,34.13
2018-08-11T11:01:45.184Z,33.73
2018-08-11T11:02:45.982Z,32.85
2018-08-11T11:03:46.820Z,32.51
2018-08-11T11:04:46.633Z,33.42
2018-08-11T11:05:47.458Z,33.28
2018-08-11T11:06:48.273Z,33.35
2018-08-11T11:07:49.017Z,33.15
2018-08-11T11:08:51.544Z,33.08
2018-08-11T11:09:51.348Z,32.93
2018-08-11T11:10:51.168Z,33.60
2018-08-11T11:11:51.911Z,32.89
2018-08-11T11:12:53.702Z,32.82
2018-08-11T11:13:55.595Z,33.08
2018-08-11T11:14:55.368Z,33.21
2018-08-11T11:15:56.141Z,33.41
2018-08-11T11:16:56.914Z,33.39
2018-08-11T11:17:57.687Z,33.06
2018-08-11T11:18:58.484Z,33.55
2018-08-11T11:19:59.267Z,33.86
2018-08-11T11:21:00.037Z,33.31
2018-08-11T11:22:00.853Z,33.62
2018-08-11T11:23:00.616Z,33.40
2018-08-11T11:24:02.422Z,33.51
2018-08-11T11:25:03.202Z,32.96
2018-08-11T11:26:04.350Z,32.35
2018-08-11T11:31:05.553Z,30.97
2018-08-11T11:32:06.325Z,31.00
2018-08-11T11:33:07.122Z,31.33
2018-08-11T11:34:07.862Z,31.38
2018-08-11T11:35:08.900Z,30.82
2018-08-11T11:36:08.674Z,30.72
2018-08-11T11:37:09.842Z,31.17
2018-08-11T11:38:09.660Z,31.08
2018-08-11T11:39:11.433Z,32.46
2018-08-11T11:40:12.231Z,33.00
2018-08-11T11:41:13.180Z,32.00
2018-08-11T11:42:13.040Z,31.15
2018-08-11T11:43:13.740Z,30.96
2018-08-11T11:44:15.508Z,30.45
2018-08-11T11:45:16.318Z,30.09
2018-08-11T11:46:17.085Z,30.06
2018-08-11T11:47:17.858Z,29.91
2018-08-11T11:48:18.632Z,30.32
2018-08-11T11:49:19.405Z,30.72
2018-08-11T11:50:20.203Z,29.28
2018-08-11T11:51:20.974Z,29.93
2018-08-11T11:52:21.749Z,29.93
2018-08-11T11:53:22.517Z,29.80
2018-08-11T11:54:23.288Z,30.27
2018-08-11T11:55:24.090Z,30.01
2018-08-11T11:56:24.859Z,30.32
2018-08-11T11:57:25.634Z,30.43
2018-08-11T11:58:26.406Z,29.62
2018-08-11T11:59:27.182Z,30.03
2018-08-11T12:00:27.980Z,30.30
2018-08-11T12:01:28.751Z,30.10
2018-08-11T12:02:29.524Z,30.34
2018-08-11T12:03:30.295Z,29.29
2018-08-11T12:04:31.068Z,29.01
2018-08-11T12:05:32.859Z,29.28
2018-08-11T12:06:32.633Z,29.02
2018-08-11T12:07:33.404Z,29.16
2018-08-11T12:08:34.177Z,28.68
2018-08-11T12:09:34.961Z,28.94
2018-08-11T12:10:35.762Z,29.17
2018-08-11T12:11:36.538Z,28.38
2018-08-11T12:12:37.308Z,28.64
2018-08-11T12:13:38.084Z,28.41
2018-08-11T12:14:38.857Z,28.73
2018-08-11T12:15:39.659Z,29.00
2018-08-11T12:16:40.431Z,29.74
2018-08-11T12:17:41.206Z,30.22
2018-08-11T12:18:41.983Z,30.28
2018-08-11T12:19:42.752Z,29.52
2018-08-11T12:20:43.552Z,29.88
2018-08-11T12:21:44.322Z,30.95
2018-08-11T12:22:45.186Z,30.88
2018-08-11T12:23:44.879Z,30.10
2018-08-11T12:24:46.652Z,31.08
2018-08-11T12:25:47.453Z,31.86
2018-08-11T12:26:48.225Z,30.72
2018-08-11T12:27:48.997Z,30.04
2018-08-11T12:28:49.777Z,29.93
2018-08-11T12:29:50.536Z,29.55
2018-08-11T12:30:51.338Z,29.94
2018-08-11T12:31:52.144Z,30.10
2018-08-11T12:32:51.876Z,30.17
2018-08-11T12:33:53.656Z,29.59
2018-08-11T12:34:54.426Z,29.55
2018-08-11T12:35:55.229Z,29.12
2018-08-11T12:36:55.999Z,29.17
2018-08-11T12:37:56.856Z,29.20
2018-08-11T12:38:56.588Z,29.43
2018-08-11T12:39:58.470Z,29.00
2018-08-11T12:40:58.217Z,28.69
2018-08-11T12:41:59.989Z,29.05
2018-08-11T12:43:00.767Z,29.09
2018-08-11T12:44:01.533Z,28.40
2018-08-11T12:45:02.318Z,28.81
2018-08-11T12:46:03.218Z,28.85
2018-08-11T12:47:02.983Z,28.60
2018-08-11T12:48:03.751Z,29.15
2018-08-11T12:49:05.523Z,29.61
2018-08-11T12:50:06.303Z,29.44
2018-08-11T12:51:07.095Z,29.57
2018-08-11T12:52:07.872Z,29.74
2018-08-11T12:53:09.641Z,29.08
2018-08-11T12:54:09.412Z,29.20
2018-08-11T12:55:10.235Z,29.43
2018-08-11T12:56:11.017Z,28.62
2018-08-11T12:57:11.791Z,28.46
2018-08-11T12:58:12.568Z,27.97
2018-08-11T12:59:13.341Z,27.09
2018-08-11T13:00:14.117Z,27.85
2018-08-11T13:01:14.915Z,28.16
2018-08-11T13:02:15.689Z,29.51
2018-08-11T13:03:16.468Z,28.84
2018-08-11T13:04:17.239Z,28.66
2018-08-11T13:05:18.019Z,28.36
2018-08-11T13:06:18.921Z,28.77
2018-08-11T13:07:18.658Z,28.62
2018-08-11T13:08:20.435Z,27.81
2018-08-11T13:09:21.203Z,27.96
2018-08-11T13:10:21.976Z,27.92
2018-08-11T13:11:22.774Z,27.86
2018-08-11T13:12:23.674Z,27.75
2018-08-11T13:13:23.396Z,28.07
2018-08-11T13:14:25.168Z,28.06
2018-08-11T13:15:26.013Z,28.57
2018-08-11T13:16:25.953Z,28.08
2018-08-11T13:17:26.669Z,28.12
2018-08-11T13:18:28.447Z,27.66